Time;durP1;ratioP1;P1;durP2;ratioP2;P2;SDS_P1;SDS_P2;PMS_P1;PMS_P2;Temp;Humidity;BMP_temperature;BMP_pressure;BME280_temperature;BME280_humidity;BME280_pressure;Samples;Min_cycle;Max_cycle;Signal;HPM_P1;HPM_P2
2022/01/08 00:01:54;;;;;;;35.47;29.67;;;;;;;-1.88;100.00;95959.78;6206656;23;20380;-62
2022/01/08 00:04:20;;;;;;;33.53;27.70;;;;;;;-1.88;100.00;95964.94;6208231;23;20017;-63
2022/01/08 00:06:45;;;;;;;28.35;25.27;;;;;;;-1.90;100.00;95951.25;6208145;23;20012;-62
2022/01/08 00:09:11;;;;;;;25.17;18.55;;;;;;;-1.80;100.00;95951.75;6209176;23;20008;-63
2022/01/08 00:11:40;;;;;;;19.40;17.25;;;;;;;-1.80;100.00;95949.16;6206929;23;20092;-63
2022/01/08 00:14:06;;;;;;;22.70;19.77;;;;;;;-1.96;100.00;95943.75;6208133;23;20019;-63
2022/01/08 00:16:34;;;;;;;22.35;18.83;;;;;;;-1.97;100.00;95936.91;6207746;23;20008;-63
2022/01/08 00:18:59;;;;;;;19.15;16.48;;;;;;;-1.80;100.00;95929.34;6207959;23;20024;-63
2022/01/08 00:21:25;;;;;;;20.52;17.02;;;;;;;-1.89;100.00;95927.97;6208679;23;20393;-63
2022/01/08 00:23:50;;;;;;;20.05;17.92;;;;;;;-1.92;100.00;95933.25;6208049;23;20271;-63
2022/01/08 00:26:16;;;;;;;21.48;19.17;;;;;;;-1.94;100.00;95926.47;6208296;23;20376;-62
2022/01/08 00:28:41;;;;;;;21.50;19.20;;;;;;;-1.97;100.00;95922.28;6208169;23;20032;-62
2022/01/08 00:31:10;;;;;;;23.90;20.48;;;;;;;-1.98;100.00;95919.75;6208586;23;20391;-63
2022/01/08 00:33:37;;;;;;;26.92;21.83;;;;;;;-1.97;100.00;95921.44;6207827;23;20130;-63
2022/01/08 00:36:03;;;;;;;25.23;22.67;;;;;;;-1.97;100.00;95905.94;6208593;23;20009;-63
2022/01/08 00:38:28;;;;;;;25.38;22.65;;;;;;;-1.95;100.00;95911.88;6208642;23;20001;-63
2022/01/08 00:40:53;;;;;;;23.67;21.20;;;;;;;-1.88;100.00;95911.59;6208607;23;20061;-63
2022/01/08 00:43:19;;;;;;;23.73;21.42;;;;;;;-1.86;100.00;95911.53;6208779;23;20012;-63
2022/01/08 00:45:45;;;;;;;25.70;21.67;;;;;;;-1.83;100.00;95911.41;6208663;23;20083;-63
2022/01/08 00:48:10;;;;;;;25.55;22.83;;;;;;;-1.80;100.00;95911.28;6208575;23;20012;-62
2022/01/08 00:50:35;;;;;;;24.13;21.55;;;;;;;-1.77;100.00;95906.00;6208440;23;20004;-63
2022/01/08 00:53:01;;;;;;;23.23;20.85;;;;;;;-1.78;100.00;95899.16;6208624;23;20016;-63
2022/01/08 00:55:26;;;;;;;23.02;20.60;;;;;;;-1.70;100.00;95891.13;6207706;23;20013;-63
2022/01/08 00:57:51;;;;;;;26.30;23.35;;;;;;;-1.76;100.00;95887.03;6208418;23;20005;-63
2022/01/08 01:00:17;;;;;;;24.63;22.02;;;;;;;-1.66;100.00;95884.91;6208695;23;20009;-63
2022/01/08 01:02:43;;;;;;;27.63;24.40;;;;;;;-1.78;100.00;95882.81;6208937;23;20001;-63
2022/01/08 01:05:10;;;;;;;26.05;23.13;;;;;;;-1.80;100.00;95869.13;6208481;23;20121;-63
2022/01/08 01:07:35;;;;;;;28.83;25.20;;;;;;;-1.78;100.00;95880.25;6208530;23;20379;-63
2022/01/08 01:10:01;;;;;;;24.85;22.35;;;;;;;-1.77;100.00;95874.16;6208433;23;20005;-63
2022/01/08 01:12:26;;;;;;;23.00;19.90;;;;;;;-1.75;100.00;95873.22;6208815;23;20004;-63
2022/01/08 01:14:52;;;;;;;22.92;20.52;;;;;;;-1.75;100.00;95883.53;6208285;23;20336;-63
2022/01/08 01:17:17;;;;;;;24.17;20.98;;;;;;;-1.76;100.00;95876.69;6208462;23;20005;-63
2022/01/08 01:19:43;;;;;;;23.65;21.15;;;;;;;-1.77;100.00;95880.19;6207079;23;20428;-63
2022/01/08 01:22:12;;;;;;;23.88;20.90;;;;;;;-1.79;100.00;95875.97;6207590;23;20435;-63
2022/01/08 01:24:38;;;;;;;26.63;22.85;;;;;;;-1.81;100.00;95870.91;6208028;23;20009;-63
2022/01/08 01:29:51;;;;;;;26.42;22.27;;;;;;;-1.82;100.00;95871.78;6208039;23;20016;-63
2022/01/08 01:46:59;;;;;;;27.13;24.30;;;;;;;-1.62;100.00;95854.66;6207831;23;20413;-64
2022/01/08 01:48:54;;;;;;;30.50;25.75;;;;;;;-1.66;100.00;95835.84;6207533;23;20023;-63
2022/01/08 01:51:23;;;;;;;29.30;26.20;;;;;;;-1.58;100.00;95835.53;6207417;23;20008;-64
2022/01/08 01:53:50;;;;;;;26.90;24.05;;;;;;;-1.66;100.00;95845.34;6207399;23;20015;-64
2022/01/08 01:56:17;;;;;;;28.00;23.92;;;;;;;-1.75;100.00;95837.06;6207797;23;20013;-63
2022/01/08 01:58:42;;;;;;;26.35;23.63;;;;;;;-1.77;100.00;95840.63;6207368;23;20083;-64
2022/01/08 02:01:08;;;;;;;26.42;23.52;;;;;;;-1.74;100.00;95841.34;6207149;23;20103;-64
2022/01/08 02:03:34;;;;;;;28.38;24.77;;;;;;;-1.73;100.00;95845.59;6208041;23;20024;-63
2022/01/08 02:06:00;;;;;;;29.00;23.80;;;;;;;-1.73;100.00;95835.28;6207892;23;20062;-63
2022/01/08 02:08:25;;;;;;;26.08;23.35;;;;;;;-1.70;100.00;95830.88;6208703;23;20012;-63
2022/01/08 02:10:51;;;;;;;27.23;24.38;;;;;;;-1.70;100.00;95842.06;6208352;23;20436;-64
2022/01/08 02:13:28;;;;;;;25.17;22.35;;;;;;;-1.70;100.00;95838.63;6209235;23;20008;-63
2022/01/08 02:15:55;;;;;;;25.75;22.92;;;;;;;-1.71;100.00;95842.97;6206719;23;20027;-64
2022/01/08 02:18:23;;;;;;;26.58;23.75;;;;;;;-1.69;100.00;95832.56;6208085;23;20070;-63
2022/01/08 02:20:48;;;;;;;26.15;23.40;;;;;;;-1.67;100.00;95849.66;6208424;23;20008;-64
2022/01/08 02:23:14;;;;;;;26.58;23.42;;;;;;;-1.63;100.00;95871.88;6208826;23;19997;-64
2022/01/08 02:25:39;;;;;;;29.83;23.73;;;;;;;-1.62;100.00;95846.91;6208554;23;20012;-64
2022/01/08 02:28:06;;;;;;;29.83;26.63;;;;;;;-1.60;100.00;95839.94;6208479;23;20462;-64
2022/01/08 02:30:32;;;;;;;28.90;25.83;;;;;;;-1.59;100.00;95860.50;6208459;22;20015;-64
2022/01/08 02:32:58;;;;;;;31.92;26.70;;;;;;;-1.49;100.00;95836.91;6208816;23;20031;-64
2022/01/08 02:35:24;;;;;;;28.38;25.52;;;;;;;-1.56;100.00;95844.06;6208632;23;20026;-64
2022/01/08 02:37:50;;;;;;;29.13;26.02;;;;;;;-1.58;100.00;95849.28;6208077;23;20011;-64
2022/01/08 02:40:18;;;;;;;26.85;24.00;;;;;;;-1.58;100.00;95843.28;6208541;23;20083;-64
2022/01/08 02:42:53;;;;;;;25.92;23.23;;;;;;;-1.45;100.00;95852.19;6206898;23;20448;-64
2022/01/08 02:45:19;;;;;;;26.33;23.57;;;;;;;-1.27;100.00;95854.06;6208725;23;20055;-64
2022/01/08 02:47:45;;;;;;;27.88;24.85;;;;;;;-1.36;100.00;95847.56;6208787;23;20075;-64
2022/01/08 02:50:11;;;;;;;26.10;23.33;;;;;;;-1.27;100.00;95852.31;6208178;23;20497;-64
2022/01/08 02:52:44;;;;;;;27.50;24.60;;;;;;;-1.47;100.00;95843.66;6208737;23;20079;-64
2022/01/08 02:55:12;;;;;;;27.13;24.10;;;;;;;-1.52;100.00;95858.53;6208205;23;20000;-64
2022/01/08 02:57:38;;;;;;;27.25;23.38;;;;;;;-1.55;100.00;95840.56;6208643;23;20440;-64
2022/01/08 03:00:05;;;;;;;28.80;24.45;;;;;;;-1.55;100.00;95843.16;6208119;23;20046;-64
2022/01/08 03:02:30;;;;;;;25.70;22.90;;;;;;;-1.43;100.00;95840.97;6208226;23;20483;-65
2022/01/08 03:04:55;;;;;;;25.52;22.90;;;;;;;-1.38;100.00;95860.53;6206800;23;20043;-64
2022/01/08 03:07:21;;;;;;;25.50;22.80;;;;;;;-1.40;100.00;95841.66;6208415;23;20009;-64
2022/01/08 03:09:56;;;;;;;25.60;22.83;;;;;;;-1.49;100.00;95852.41;6208102;23;20161;-64
2022/01/08 03:12:21;;;;;;;29.05;25.98;;;;;;;-1.43;100.00;95862.47;6208372;23;20011;-64
2022/01/08 03:14:46;;;;;;;29.42;26.23;;;;;;;-1.41;100.00;95870.16;6208542;23;20013;-64
2022/01/08 03:17:12;;;;;;;29.38;26.25;;;;;;;-1.45;100.00;95857.34;6208099;23;20454;-64
2022/01/08 03:19:39;;;;;;;26.77;23.95;;;;;;;-1.49;100.00;95847.25;6208605;23;20083;-64
2022/01/08 03:22:05;;;;;;;27.58;24.77;;;;;;;-1.50;100.00;95845.56;6209123;23;20001;-64
2022/01/08 03:24:31;;;;;;;28.42;25.63;;;;;;;-1.52;100.00;95839.63;6208865;23;20009;-64
2022/01/08 03:26:57;;;;;;;28.83;24.40;;;;;;;-1.53;100.00;95838.75;6208832;23;20079;-64
2022/01/08 03:29:23;;;;;;;27.10;24.05;;;;;;;-1.54;100.00;95833.69;6209138;23;20000;-64
2022/01/08 03:31:49;;;;;;;25.52;22.92;;;;;;;-1.52;100.00;95832.69;6208936;23;20059;-64
2022/01/08 03:34:14;;;;;;;23.20;20.98;;;;;;;-1.52;100.00;95831.88;6209149;23;20065;-64
2022/01/08 03:36:40;;;;;;;24.30;22.00;;;;;;;-1.52;100.00;95832.69;6209002;23;20027;-64
2022/01/08 03:39:05;;;;;;;24.75;22.30;;;;;;;-1.51;100.00;95829.22;6209334;23;20027;-64
2022/01/08 03:41:31;;;;;;;24.85;22.45;;;;;;;-1.47;100.00;95824.75;6209009;23;20092;-65
2022/01/08 03:43:57;;;;;;;26.10;23.38;;;;;;;-1.49;100.00;95839.50;6208788;23;20715;-64
2022/01/08 03:46:27;;;;;;;25.25;22.42;;;;;;;-1.37;100.00;95838.94;6209034;23;20008;-64
2022/01/08 03:51:26;;;;;;;22.40;20.15;;;;;;;-1.09;100.00;95831.75;6209221;23;20013;-64
2022/01/08 03:53:52;;;;;;;26.48;22.52;;;;;;;-1.28;100.00;95835.13;6208977;23;20007;-64
2022/01/08 03:56:17;;;;;;;24.75;22.13;;;;;;;-1.26;100.00;95828.16;6209176;23;20013;-64
2022/01/08 03:58:43;;;;;;;26.33;23.60;;;;;;;-1.24;100.00;95815.19;6208998;23;20005;-64
2022/01/08 04:01:08;;;;;;;25.83;22.88;;;;;;;-1.37;100.00;95820.03;6209069;23;20098;-64
2022/01/08 04:03:33;;;;;;;26.55;23.73;;;;;;;-1.43;100.00;95810.00;6208974;23;20028;-65
2022/01/08 04:05:59;;;;;;;25.65;23.15;;;;;;;-1.45;100.00;95817.78;6208632;23;20011;-64
2022/01/08 04:08:24;;;;;;;25.88;23.25;;;;;;;-1.46;100.00;95827.25;6208945;23;20011;-64
2022/01/08 04:10:50;;;;;;;24.92;22.30;;;;;;;-1.46;100.00;95831.59;6208708;23;20013;-64
2022/01/08 04:13:20;;;;;;;23.90;21.33;;;;;;;-1.41;100.00;95831.41;6208747;23;20402;-64
2022/01/08 04:15:47;;;;;;;24.30;21.73;;;;;;;-1.41;100.00;95824.50;6208738;23;20008;-64
2022/01/08 04:18:13;;;;;;;25.10;22.20;;;;;;;-1.43;100.00;95820.31;6209167;23;20004;-64
2022/01/08 04:23:21;;;;;;;23.58;20.92;;;;;;;-1.42;100.00;95811.66;6208849;23;20398;-64
2022/01/08 04:25:47;;;;;;;23.52;19.90;;;;;;;-1.40;100.00;95813.25;6208536;23;20012;-64
2022/01/08 04:28:13;;;;;;;20.58;17.67;;;;;;;-1.30;100.00;95824.88;6208979;23;20032;-64
2022/01/08 04:30:39;;;;;;;22.95;19.65;;;;;;;-1.33;100.00;95824.16;6208836;23;20007;-64
2022/01/08 04:33:04;;;;;;;21.20;18.98;;;;;;;-1.33;100.00;95826.75;6208623;23;20009;-64
2022/01/08 04:35:30;;;;;;;19.65;17.65;;;;;;;-1.05;100.00;95853.97;6209004;23;20036;-64
2022/01/08 04:37:55;;;;;;;24.15;21.52;;;;;;;-0.83;100.00;95868.53;6208648;23;20053;-64
2022/01/08 04:40:21;;;;;;;25.60;22.98;;;;;;;-1.08;100.00;95882.53;6209077;23;20448;-65
2022/01/08 04:42:46;;;;;;;25.73;23.15;;;;;;;-1.10;100.00;95899.84;6208744;23;20008;-64
2022/01/08 04:45:12;;;;;;;22.73;20.15;;;;;;;-1.00;100.00;95906.31;6208428;23;20054;-64
2022/01/08 04:47:38;;;;;;;21.40;19.33;;;;;;;-1.06;100.00;95907.44;6208674;23;20015;-64
2022/01/08 04:50:03;;;;;;;20.35;18.35;;;;;;;-1.10;100.00;95917.94;6209019;23;20005;-64
2022/01/08 04:52:29;;;;;;;18.17;16.48;;;;;;;-1.19;100.00;95916.59;6208771;23;20009;-64
2022/01/08 04:54:54;;;;;;;18.25;16.45;;;;;;;-1.26;100.00;95915.19;6208172;23;20024;-65
2022/01/08 04:57:20;;;;;;;17.65;15.95;;;;;;;-1.30;100.00;95906.72;6208936;23;20347;-64
2022/01/08 04:59:45;;;;;;;13.98;12.68;;;;;;;-1.31;100.00;95892.09;6208646;23;20005;-64
2022/01/08 05:02:10;;;;;;;11.35;10.45;;;;;;;-1.35;100.00;95898.31;6208588;23;20202;-65
2022/01/08 05:04:36;;;;;;;11.82;10.73;;;;;;;-1.37;100.00;95885.44;6208361;23;20008;-65
2022/01/08 05:07:01;;;;;;;13.70;12.40;;;;;;;-1.39;100.00;95909.69;6208550;23;20012;-64
2022/01/08 05:09:27;;;;;;;13.77;12.60;;;;;;;-1.39;100.00;95899.34;6208516;23;20008;-65
2022/01/08 05:11:52;;;;;;;15.32;13.93;;;;;;;-1.34;100.00;95912.91;6208565;23;20032;-65
2022/01/08 05:14:18;;;;;;;13.48;12.10;;;;;;;-1.10;100.00;95912.78;6208724;23;20012;-64
2022/01/08 05:16:45;;;;;;;14.40;13.07;;;;;;;-1.25;100.00;95917.69;6208452;23;20036;-64
2022/01/08 05:19:10;;;;;;;15.18;13.82;;;;;;;-1.26;100.00;95916.00;6208594;23;20385;-64
2022/01/08 05:21:38;;;;;;;14.88;13.60;;;;;;;-1.19;100.00;95922.63;6208405;23;20004;-64
2022/01/08 05:24:04;;;;;;;13.73;12.40;;;;;;;-1.21;100.00;95913.22;6208386;23;20005;-64
2022/01/08 05:26:29;;;;;;;14.07;12.88;;;;;;;-1.27;100.00;95919.50;6208625;23;20000;-65
2022/01/08 05:28:55;;;;;;;11.77;10.70;;;;;;;-1.12;100.00;95899.91;6208283;23;20015;-65
2022/01/08 05:31:23;;;;;;;10.30;9.35;;;;;;;-1.05;100.00;95900.50;6208704;23;20066;-65
2022/01/08 05:33:51;;;;;;;11.10;10.10;;;;;;;-1.08;100.00;95895.47;6206781;23;20028;-65
2022/01/08 05:36:17;;;;;;;11.02;10.05;;;;;;;-1.12;100.00;95902.50;6208753;23;20004;-64
2022/01/08 05:38:42;;;;;;;10.48;9.57;;;;;;;-1.14;100.00;95906.06;6208499;23;20753;-64
2022/01/08 05:41:09;;;;;;;14.55;13.25;;;;;;;-1.14;100.00;95917.22;6209483;23;20529;-65
2022/01/08 05:43:34;;;;;;;13.15;12.05;;;;;;;-1.12;100.00;95930.09;6209732;23;20072;-64
2022/01/08 05:45:59;;;;;;;11.85;10.70;;;;;;;-1.11;100.00;95942.94;6207870;23;20093;-65
2022/01/08 05:48:26;;;;;;;9.55;8.60;;;;;;;-1.08;100.00;95941.97;6209466;23;20020;-65
2022/01/08 05:50:52;;;;;;;8.68;7.97;;;;;;;-1.04;100.00;95956.44;6209863;23;20031;-66
2022/01/08 05:53:19;;;;;;;6.05;5.65;;;;;;;-0.98;100.00;95942.44;6209564;23;20429;-66
2022/01/08 05:55:45;;;;;;;6.78;6.28;;;;;;;-0.93;100.00;95950.81;6209322;23;20017;-66
2022/01/08 05:58:11;;;;;;;9.55;8.75;;;;;;;-0.94;100.00;95960.34;6209485;23;20343;-66
2022/01/08 06:00:36;;;;;;;8.27;7.63;;;;;;;-0.95;100.00;95961.25;6209157;23;20004;-66
2022/01/08 06:03:02;;;;;;;8.13;7.53;;;;;;;-0.95;100.00;95962.97;6209434;23;20321;-66
2022/01/08 06:05:27;;;;;;;7.68;7.07;;;;;;;-0.95;100.00;95958.66;6209476;23;20031;-66
2022/01/08 06:07:53;;;;;;;8.40;7.75;;;;;;;-0.96;100.00;95964.75;6209398;23;20005;-66
2022/01/08 06:10:19;;;;;;;8.90;8.15;;;;;;;-0.93;100.00;95954.25;6209659;23;20395;-66
2022/01/08 06:12:45;;;;;;;10.05;9.32;;;;;;;-0.91;100.00;95956.75;6209244;23;20008;-67
2022/01/08 06:15:10;;;;;;;22.83;17.75;;;;;;;-0.83;100.00;95953.84;6208580;23;20032;-67
2022/01/08 06:17:36;;;;;;;24.08;20.50;;;;;;;-0.84;100.00;95957.34;6209385;23;20027;-67
2022/01/08 06:20:02;;;;;;;15.88;13.45;;;;;;;-0.85;100.00;95955.69;6209204;23;20008;-66
2022/01/08 06:22:27;;;;;;;12.85;11.52;;;;;;;-0.86;100.00;95962.59;6209269;23;20009;-66
2022/01/08 06:24:53;;;;;;;10.40;9.40;;;;;;;-0.86;100.00;95970.38;6209285;23;20548;-66
2022/01/08 06:27:19;;;;;;;7.53;6.82;;;;;;;-0.88;100.00;95974.75;6208691;23;20005;-66
2022/01/08 06:29:44;;;;;;;7.70;7.03;;;;;;;-0.88;100.00;95975.59;6207741;23;20019;-67
2022/01/08 06:32:09;;;;;;;8.40;7.60;;;;;;;-0.85;100.00;95978.94;6209276;23;20456;-66
2022/01/08 06:34:35;;;;;;;8.85;8.00;;;;;;;-0.85;100.00;95981.53;6209296;23;20020;-66
2022/01/08 06:37:01;;;;;;;11.35;10.27;;;;;;;-0.85;100.00;95966.00;6209262;23;19996;-66
2022/01/08 06:39:26;;;;;;;5.95;5.45;;;;;;;-0.84;100.00;95965.97;6209363;23;20012;-67
2022/01/08 06:41:51;;;;;;;5.15;4.03;;;;;;;-0.80;100.00;95964.91;6209003;23;20393;-67
2022/01/08 06:44:17;;;;;;;9.38;8.45;;;;;;;-0.80;100.00;95969.25;6209097;23;20020;-66
2022/01/08 06:46:42;;;;;;;9.57;8.38;;;;;;;-0.84;100.00;95971.13;6209119;23;20497;-66
2022/01/08 06:49:08;;;;;;;8.82;8.02;;;;;;;-0.87;100.00;95987.59;6209696;23;20069;-66
2022/01/08 06:51:34;;;;;;;9.32;7.55;;;;;;;-0.87;100.00;95989.38;6208668;23;20061;-66
2022/01/08 06:53:59;;;;;;;6.63;5.95;;;;;;;-0.84;100.00;95996.13;6209505;23;20067;-66
2022/01/08 06:56:24;;;;;;;5.65;5.15;;;;;;;-0.81;100.00;95990.81;6208834;23;20019;-66
2022/01/08 06:58:50;;;;;;;5.45;5.07;;;;;;;-0.80;100.00;95984.75;6209494;23;20427;-65
2022/01/08 07:01:15;;;;;;;8.65;7.85;;;;;;;-0.77;100.00;95984.66;6209180;23;20005;-66
2022/01/08 07:03:41;;;;;;;8.32;7.63;;;;;;;-0.78;100.00;95976.03;6208981;23;20405;-66
2022/01/08 07:06:06;;;;;;;7.32;6.65;;;;;;;-0.77;100.00;95969.97;6208531;23;20020;-66
2022/01/08 07:08:31;;;;;;;7.22;6.57;;;;;;;-0.72;100.00;95977.53;6208780;23;20008;-66
2022/01/08 07:10:57;;;;;;;12.02;10.93;;;;;;;-0.74;100.00;95976.75;6208996;23;19996;-66
2022/01/08 07:13:22;;;;;;;10.73;9.73;;;;;;;-0.65;100.00;95981.53;6208578;23;20027;-66
2022/01/08 07:15:48;;;;;;;8.73;8.02;;;;;;;-0.67;100.00;95991.09;6209073;23;20083;-66
2022/01/08 07:18:13;;;;;;;20.55;17.38;;;;;;;-0.67;100.00;95978.16;6207838;23;20063;-66
2022/01/08 07:20:39;;;;;;;17.75;14.18;;;;;;;-0.55;100.00;95976.78;6208980;23;20058;-66
2022/01/08 07:23:04;;;;;;;16.83;14.73;;;;;;;-0.61;100.00;95977.06;6208878;23;19996;-65
2022/01/08 07:25:30;;;;;;;12.32;11.05;;;;;;;-0.66;100.00;95977.25;6208614;23;20347;-66
2022/01/08 07:27:55;;;;;;;18.90;16.08;;;;;;;-0.72;100.00;95972.34;6209358;23;20008;-66
2022/01/08 07:30:21;;;;;;;19.55;16.10;;;;;;;-0.73;100.00;95975.84;6209072;23;20001;-65
2022/01/08 07:32:49;;;;;;;18.23;14.32;;;;;;;-0.74;100.00;95984.50;6209129;23;20012;-63
2022/01/08 07:35:18;;;;;;;22.67;17.65;;;;;;;-0.74;100.00;95989.69;6209325;23;20344;-67
2022/01/08 07:37:43;;;;;;;28.00;23.80;;;;;;;-0.74;100.00;95987.91;6209013;23;20009;-66
2022/01/08 07:40:11;;;;;;;25.77;21.30;;;;;;;-0.74;100.00;95980.16;6208418;23;20004;-69
2022/01/08 07:42:37;;;;;;;22.35;19.98;;;;;;;-0.72;100.00;95991.28;6209014;23;20053;-67
2022/01/08 07:45:04;;;;;;;30.98;26.05;;;;;;;-0.70;100.00;95991.22;6208178;23;20011;-67
2022/01/08 07:47:29;;;;;;;28.00;21.50;;;;;;;-0.63;100.00;95982.28;6208118;23;20000;-58
2022/01/08 07:49:55;;;;;;;20.02;16.02;;;;;;;-0.63;100.00;95987.47;6208858;23;19997;-58
2022/01/08 07:52:20;;;;;;;13.38;12.05;;;;;;;-0.64;100.00;95996.13;6208812;23;20065;-55
2022/01/08 07:54:45;;;;;;;18.35;16.45;;;;;;;-0.63;100.00;95995.22;6208793;23;20008;-57
2022/01/08 07:57:11;;;;;;;18.92;15.52;;;;;;;-0.55;100.00;96004.38;6208469;23;20048;-55
2022/01/08 07:59:36;;;;;;;25.05;19.15;;;;;;;-0.30;100.00;96010.19;6208251;23;20031;-57
2022/01/08 08:02:02;;;;;;;27.30;17.83;;;;;;;-0.49;100.00;96019.66;6207896;23;20020;-57
2022/01/08 08:04:27;;;;;;;20.83;16.88;;;;;;;-0.64;100.00;96022.00;6208459;23;20028;-55
2022/01/08 08:06:52;;;;;;;22.58;19.55;;;;;;;-0.73;100.00;96023.22;6207759;23;20008;-56
2022/01/08 08:09:18;;;;;;;17.27;15.50;;;;;;;-0.76;100.00;96023.34;6207770;23;20031;-58
2022/01/08 08:11:43;;;;;;;16.80;13.98;;;;;;;-0.77;100.00;96021.66;6207734;23;20496;-57
2022/01/08 08:14:09;;;;;;;12.57;11.38;;;;;;;-0.77;100.00;96029.44;6207390;23;20020;-56
2022/01/08 08:16:35;;;;;;;12.77;11.57;;;;;;;-0.77;100.00;96028.59;6207983;23;20356;-56
2022/01/08 08:19:01;;;;;;;10.77;9.32;;;;;;;-0.74;100.00;96033.66;6208338;23;20009;-57
2022/01/08 08:21:26;;;;;;;11.45;10.25;;;;;;;-0.72;100.00;96039.59;6207561;23;20011;-58
2022/01/08 08:23:52;;;;;;;11.18;9.07;;;;;;;-0.72;100.00;96053.34;6208123;23;20061;-58
2022/01/08 08:26:17;;;;;;;11.45;10.35;;;;;;;-0.69;100.00;96065.31;6208136;23;20005;-59
2022/01/08 08:28:42;;;;;;;10.95;9.93;;;;;;;-0.70;100.00;96061.06;6208414;23;20008;-59
2022/01/08 08:31:10;;;;;;;11.25;10.10;;;;;;;-0.66;100.00;96066.94;6208604;23;20000;-58
2022/01/08 08:33:35;;;;;;;14.80;13.13;;;;;;;-0.47;100.00;96060.06;6208368;23;20016;-57
2022/01/08 08:36:01;;;;;;;16.23;14.60;;;;;;;-0.49;100.00;96071.41;6208520;23;20428;-58
2022/01/08 08:38:27;;;;;;;17.40;15.32;;;;;;;-0.60;100.00;96075.25;6208538;23;20073;-56
2022/01/08 08:40:52;;;;;;;22.67;17.42;;;;;;;-0.62;100.00;96077.06;6207472;23;20374;-57
2022/01/08 08:43:19;;;;;;;18.40;16.35;;;;;;;-0.63;100.00;96079.75;6208203;23;20004;-59
2022/01/08 08:45:45;;;;;;;20.17;18.08;;;;;;;-0.68;100.00;96087.69;6207682;23;20012;-57
2022/01/08 08:48:10;;;;;;;21.77;19.52;;;;;;;-0.68;100.00;96090.28;6206933;23;20011;-59
2022/01/08 08:50:36;;;;;;;29.38;23.48;;;;;;;-0.72;100.00;96091.31;6207881;23;20000;-58
2022/01/08 08:53:01;;;;;;;29.77;25.15;;;;;;;-0.69;100.00;96092.91;6207373;23;20008;-58
2022/01/08 08:55:27;;;;;;;25.58;22.45;;;;;;;-0.68;100.00;96085.09;6207427;23;20515;-59
2022/01/08 08:57:52;;;;;;;35.45;25.95;;;;;;;-0.61;100.00;96078.75;6207473;23;20082;-59
2022/01/08 09:00:19;;;;;;;45.90;23.55;;;;;;;-0.60;100.00;96084.78;6206604;23;20428;-59
2022/01/08 09:02:44;;;;;;;30.27;18.40;;;;;;;-0.73;100.00;96089.63;6208435;23;20009;-59
2022/01/08 09:05:10;;;;;;;22.85;16.00;;;;;;;-0.65;100.00;96084.16;6206257;23;20016;-59
2022/01/08 09:07:35;;;;;;;19.52;15.55;;;;;;;-0.74;100.00;96088.78;6206862;23;20020;-59
2022/01/08 09:10:04;;;;;;;21.45;15.40;;;;;;;-0.77;100.00;96088.06;6206232;23;20451;-59
2022/01/08 09:12:29;;;;;;;45.38;20.95;;;;;;;-0.81;100.00;96091.66;6207909;23;20004;-59
2022/01/08 09:14:55;;;;;;;38.72;20.60;;;;;;;-0.79;100.00;96095.03;6206992;23;20615;-59
2022/01/08 09:17:21;;;;;;;30.35;23.20;;;;;;;-0.78;100.00;96109.63;6205363;23;20001;-59
2022/01/08 09:19:47;;;;;;;25.30;16.77;;;;;;;-0.77;100.00;96122.50;6206503;23;20004;-58
2022/01/08 09:22:13;;;;;;;21.60;16.38;;;;;;;-0.75;100.00;96109.53;6207318;23;20015;-59
2022/01/08 09:24:39;;;;;;;18.20;15.50;;;;;;;-0.72;100.00;96109.41;6206926;23;20137;-60
2022/01/08 09:27:05;;;;;;;23.17;19.40;;;;;;;-0.68;100.00;96116.13;6205993;23;20004;-58
2022/01/08 09:29:30;;;;;;;31.38;23.98;;;;;;;-0.70;100.00;96120.53;6207449;23;20005;-59
2022/01/08 09:31:56;;;;;;;28.27;23.50;;;;;;;-0.68;100.00;96117.84;6206651;23;20004;-59
2022/01/08 09:34:22;;;;;;;26.58;21.83;;;;;;;-0.57;100.00;96123.44;6206480;23;20068;-59
2022/01/08 09:36:48;;;;;;;24.83;20.33;;;;;;;-0.53;100.00;96126.75;6205291;23;20090;-59
2022/01/08 09:39:14;;;;;;;25.17;21.45;;;;;;;-0.53;100.00;96119.81;6204293;23;20479;-58
2022/01/08 09:41:40;;;;;;;23.98;20.60;;;;;;;-0.48;100.00;96127.41;6205530;22;20016;-59
2022/01/08 09:44:06;;;;;;;23.25;19.70;;;;;;;-0.45;100.00;96132.44;6207524;23;20462;-54
2022/01/08 09:46:32;;;;;;;36.92;27.75;;;;;;;-0.44;100.00;96118.59;6207893;23;20015;-55
2022/01/08 09:48:57;;;;;;;39.15;31.17;;;;;;;-0.43;100.00;96122.88;6205849;23;20032;-55
2022/01/08 09:51:23;;;;;;;31.90;26.83;;;;;;;-0.39;100.00;96119.25;6208636;23;20014;-57
2022/01/08 09:53:48;;;;;;;27.42;22.10;;;;;;;-0.35;100.00;96119.97;6207143;23;20422;-61
2022/01/08 09:56:14;;;;;;;37.08;31.13;;;;;;;-0.31;100.00;96113.75;6204622;23;20016;-59
2022/01/08 09:58:39;;;;;;;32.45;28.33;;;;;;;-0.15;100.00;96125.16;6207174;23;20020;-59
2022/01/08 10:01:31;;;;;;;35.13;30.38;;;;;;;-0.13;100.00;96113.88;6206230;23;20004;-56
2022/01/08 10:03:59;;;;;;;33.20;27.40;;;;;;;-0.18;100.00;96121.84;6207938;23;20004;-56
2022/01/08 10:06:29;;;;;;;27.98;25.00;;;;;;;-0.18;100.00;96121.84;6208079;23;20436;-57
2022/01/08 10:08:55;;;;;;;33.75;28.05;;;;;;;-0.16;100.00;96104.50;6206790;23;20123;-58
2022/01/08 10:11:23;;;;;;;33.08;28.42;;;;;;;-0.08;100.00;96102.44;6205690;23;20483;-56
2022/01/08 10:13:58;;;;;;;28.60;25.23;;;;;;;0.04;100.00;96105.38;6207111;23;20034;-55
2022/01/08 10:19:23;;;;;;;33.13;27.77;;;;;;;0.02;100.00;96108.06;6207732;23;20065;-56
2022/01/08 10:21:53;;;;;;;29.08;24.65;;;;;;;0.34;100.00;96120.50;6207542;23;20039;-57
2022/01/08 10:24:26;;;;;;;34.42;28.20;;;;;;;0.24;100.00;96117.47;6207879;23;20005;-57
2022/01/08 10:27:00;;;;;;;42.67;34.85;;;;;;;0.49;100.00;96113.78;6209087;23;20005;-56
2022/01/08 10:29:26;;;;;;;39.63;33.67;;;;;;;0.28;100.00;96101.69;6207234;23;20004;-55
2022/01/08 10:31:53;;;;;;;42.60;37.80;;;;;;;0.25;100.00;96096.66;6208399;23;20013;-57
2022/01/08 10:34:21;;;;;;;35.88;31.73;;;;;;;0.36;100.00;96095.34;6209325;23;20000;-56
2022/01/08 10:37:00;;;;;;;26.63;22.60;;;;;;;0.27;100.00;96101.78;6208163;23;20076;-56
2022/01/08 10:39:32;;;;;;;18.35;16.38;;;;;;;0.37;100.00;96097.03;6207972;23;20004;-54
2022/01/08 10:42:01;;;;;;;22.60;19.05;;;;;;;0.32;100.00;96097.22;6208833;23;20008;-55
2022/01/08 10:44:31;;;;;;;23.17;19.10;;;;;;;0.29;100.00;96097.38;6207868;23;20008;-57
2022/01/08 10:47:13;;;;;;;28.30;23.08;;;;;;;0.27;100.00;96091.44;6208127;23;20001;-56
2022/01/08 10:49:44;;;;;;;23.55;20.38;;;;;;;0.33;100.00;96093.72;6208554;23;20005;-57
2022/01/08 10:52:18;;;;;;;23.67;21.05;;;;;;;0.42;100.00;96089.88;6209171;23;20375;-56
2022/01/08 10:54:54;;;;;;;23.35;20.45;;;;;;;0.54;100.00;96089.31;6207623;23;20016;-56
2022/01/08 10:57:20;;;;;;;38.45;31.92;;;;;;;0.36;100.00;96092.75;6208387;23;20012;-57
2022/01/08 10:59:54;;;;;;;34.70;31.00;;;;;;;0.45;100.00;96094.94;6206809;23;20001;-57
2022/01/08 11:02:20;;;;;;;36.17;29.02;;;;;;;0.35;100.00;96088.50;6205977;23;20092;-57
2022/01/08 11:04:48;;;;;;;39.22;33.70;;;;;;;0.28;100.00;96087.94;6208444;23;20044;-58
2022/01/08 11:07:25;;;;;;;37.20;31.63;;;;;;;0.34;100.00;96074.69;6206866;22;20361;-56
2022/01/08 11:09:55;;;;;;;39.38;34.88;;;;;;;0.16;100.00;96076.38;6209254;23;20111;-56
2022/01/08 11:12:26;;;;;;;30.38;27.10;;;;;;;0.29;100.00;96063.72;6209245;23;20083;-55
2022/01/08 11:17:26;;;;;;;30.50;26.75;;;;;;;0.53;100.00;96053.13;6208876;23;20009;-55
2022/01/08 11:19:55;;;;;;;27.55;24.83;;;;;;;0.67;100.00;96047.28;6208611;23;20024;-55
2022/01/08 11:22:23;;;;;;;30.50;27.30;;;;;;;0.87;100.00;96033.38;6208181;23;20011;-55
2022/01/08 11:25:06;;;;;;;27.55;24.50;;;;;;;0.95;100.00;96033.00;6207272;23;20390;-57
2022/01/08 11:27:35;;;;;;;28.73;25.50;;;;;;;0.98;100.00;96022.47;6208052;23;20367;-57
2022/01/08 11:30:10;;;;;;;29.27;26.17;;;;;;;0.97;100.00;96013.88;6208687;23;20011;-57
2022/01/08 11:32:37;;;;;;;31.80;27.45;;;;;;;1.13;100.00;96006.16;6208335;22;20130;-58
2022/01/08 11:35:05;;;;;;;27.63;24.40;;;;;;;1.31;100.00;95995.78;6208341;23;20004;-56
2022/01/08 11:37:31;;;;;;;28.17;25.17;;;;;;;1.74;99.07;95986.72;6207956;23;20009;-56